createdAt,value
2023-04-08T00:00:28.145Z,63.08
2023-04-08T00:02:54.936Z,63.18
2023-04-08T00:05:21.859Z,63.89
2023-04-08T00:07:48.748Z,63.05
2023-04-08T00:10:15.554Z,63.48
2023-04-08T00:12:42.234Z,63.27
2023-04-08T00:15:09.396Z,62.83
2023-04-08T00:17:36.389Z,62.98
2023-04-08T00:20:03.364Z,63.53
2023-04-08T00:22:30.256Z,63.38
2023-04-08T00:24:58.166Z,64.09
2023-04-08T00:27:27.604Z,64.63
2023-04-08T00:29:54.380Z,64.96
2023-04-08T00:32:21.591Z,63.90
2023-04-08T00:34:48.519Z,64.04
2023-04-08T00:37:15.544Z,64.17
2023-04-08T00:39:42.383Z,63.88
2023-04-08T00:42:09.879Z,64.36
2023-04-08T00:44:36.624Z,63.49
2023-04-08T00:47:04.264Z,63.50
2023-04-08T00:49:32.137Z,63.93
2023-04-08T00:52:00.529Z,63.94
2023-04-08T00:54:27.271Z,63.54
2023-04-08T00:56:54.061Z,64.15
2023-04-08T00:59:21.029Z,64.16
2023-04-08T01:01:57.573Z,64.31
2023-04-08T01:04:33.909Z,64.25
2023-04-08T01:07:06.544Z,63.62
2023-04-08T01:09:38.258Z,63.84
2023-04-08T01:12:08.136Z,64.61
2023-04-08T01:14:42.412Z,64.48
2023-04-08T01:17:09.921Z,64.55
2023-04-08T01:19:39.838Z,64.29
2023-04-08T01:22:29.265Z,63.99
2023-04-08T01:25:02.858Z,63.89
2023-04-08T01:27:31.905Z,64.43
2023-04-08T01:30:01.806Z,64.26
2023-04-08T01:32:32.863Z,64.39
2023-04-08T01:35:01.530Z,64.08
2023-04-08T01:37:30.605Z,64.55
2023-04-08T01:39:59.084Z,64.67
2023-04-08T01:42:28.687Z,65.23
2023-04-08T01:44:57.568Z,65.37
2023-04-08T01:47:25.709Z,64.66
2023-04-08T01:49:53.084Z,63.88
2023-04-08T01:52:22.607Z,64.01
2023-04-08T01:54:49.564Z,64.43
2023-04-08T01:57:27.410Z,64.22
2023-04-08T02:00:00.707Z,63.47
2023-04-08T02:02:28.716Z,64.09
2023-04-08T02:04:55.815Z,64.18
2023-04-08T02:07:22.578Z,64.48
2023-04-08T02:09:50.411Z,64.20
2023-04-08T02:12:17.631Z,63.90
2023-04-08T02:14:44.571Z,63.71
2023-04-08T02:17:24.853Z,62.92
2023-04-08T02:20:01.068Z,63.61
2023-04-08T02:22:46.312Z,63.48
2023-04-08T02:25:17.270Z,63.98
2023-04-08T02:27:47.217Z,63.26
2023-04-08T02:30:15.718Z,63.30
2023-04-08T02:32:43.911Z,63.60
2023-04-08T02:35:12.777Z,63.32
2023-04-08T02:37:39.694Z,63.41
2023-04-08T02:40:24.214Z,63.32
2023-04-08T02:42:51.525Z,62.93
2023-04-08T02:45:18.715Z,63.07
2023-04-08T02:47:45.633Z,63.28
2023-04-08T02:50:12.398Z,63.08
2023-04-08T02:52:39.365Z,63.55
2023-04-08T02:55:09.798Z,64.03
2023-04-08T02:57:41.055Z,63.92
2023-04-08T03:00:08.596Z,63.81
2023-04-08T03:02:36.053Z,65.04
2023-04-08T03:05:04.304Z,65.80
2023-04-08T03:07:31.635Z,66.11
2023-04-08T03:09:58.716Z,66.46
2023-04-08T03:12:27.665Z,65.38
2023-04-08T03:14:54.908Z,65.55
2023-04-08T03:17:21.865Z,65.08
2023-04-08T03:19:48.625Z,65.55
2023-04-08T03:22:15.537Z,64.21
2023-04-08T03:24:42.416Z,63.78
2023-04-08T03:27:09.179Z,63.38
2023-04-08T03:29:35.996Z,63.27
2023-04-08T03:32:02.974Z,63.42
2023-04-08T03:34:29.754Z,63.49
2023-04-08T03:36:56.472Z,63.69
2023-04-08T03:39:23.203Z,63.61
2023-04-08T03:41:49.845Z,63.74
2023-04-08T03:44:19.852Z,63.93
2023-04-08T03:46:46.589Z,64.05
2023-04-08T03:49:13.177Z,64.30
2023-04-08T03:51:39.909Z,64.05
2023-04-08T03:54:07.830Z,63.15
2023-04-08T03:56:34.697Z,63.40
2023-04-08T03:59:01.404Z,63.27
2023-04-08T04:01:29.124Z,63.31
2023-04-08T04:03:56.071Z,63.60
2023-04-08T04:06:22.959Z,63.91
2023-04-08T04:08:50.518Z,64.74
2023-04-08T04:11:17.456Z,65.03
2023-04-08T04:13:44.142Z,64.52
2023-04-08T04:16:10.866Z,63.92
2023-04-08T04:18:37.622Z,65.55
2023-04-08T04:21:07.439Z,66.69
2023-04-08T04:23:34.443Z,66.01
2023-04-08T04:26:01.369Z,65.31
2023-04-08T04:28:28.213Z,65.42
2023-04-08T04:30:56.472Z,64.60
2023-04-08T04:33:23.461Z,65.10
2023-04-08T04:35:50.337Z,63.61
2023-04-08T04:38:17.404Z,64.01
2023-04-08T04:40:45.467Z,63.67
2023-04-08T04:43:12.154Z,64.25
2023-04-08T04:45:38.816Z,64.22
2023-04-08T04:48:05.741Z,64.17
2023-04-08T04:50:32.587Z,64.60
2023-04-08T04:52:59.460Z,65.39
2023-04-08T04:55:26.596Z,64.95
2023-04-08T04:57:53.327Z,65.14
2023-04-08T05:00:20.197Z,65.64
2023-04-08T05:02:47.075Z,64.99
2023-04-08T05:05:14.020Z,65.31
2023-04-08T05:07:41.009Z,65.92
2023-04-08T05:10:07.958Z,65.67
2023-04-08T05:12:34.761Z,66.37
2023-04-08T05:15:02.270Z,65.24
2023-04-08T05:17:29.087Z,65.81
2023-04-08T05:19:55.755Z,66.35
2023-04-08T05:22:22.525Z,66.17
2023-04-08T05:24:49.387Z,66.25
2023-04-08T05:27:16.185Z,67.03
2023-04-08T05:29:42.891Z,65.93
2023-04-08T05:32:09.590Z,66.26
2023-04-08T05:34:36.185Z,67.35
2023-04-08T05:37:02.891Z,66.99
2023-04-08T05:39:29.680Z,67.06
2023-04-08T05:41:56.431Z,67.76
2023-04-08T05:44:23.300Z,68.55
2023-04-08T05:46:50.278Z,67.96
2023-04-08T05:49:17.559Z,67.82
2023-04-08T05:51:44.481Z,68.56
2023-04-08T05:54:11.209Z,68.90
2023-04-08T05:56:37.972Z,69.63
2023-04-08T05:59:04.893Z,69.52
2023-04-08T06:01:31.967Z,69.76
2023-04-08T06:03:58.813Z,70.54
2023-04-08T06:06:26.108Z,70.50
2023-04-08T06:08:52.910Z,71.25
2023-04-08T06:11:19.739Z,71.63
2023-04-08T06:13:46.450Z,71.53
2023-04-08T06:16:14.753Z,71.35
2023-04-08T06:18:41.581Z,71.20
2023-04-08T06:21:08.427Z,71.30
2023-04-08T06:23:35.048Z,71.17
2023-04-08T06:26:02.037Z,71.42
2023-04-08T06:28:32.386Z,71.27
2023-04-08T06:30:59.646Z,71.06
2023-04-08T06:33:26.243Z,70.92
2023-04-08T06:36:02.810Z,70.85
2023-04-08T06:38:29.919Z,70.54
2023-04-08T06:40:56.663Z,71.37
2023-04-08T06:43:23.477Z,70.95
2023-04-08T06:45:50.202Z,71.13
2023-04-08T06:48:16.904Z,70.81
2023-04-08T06:50:44.153Z,70.27
2023-04-08T06:53:11.076Z,69.70
2023-04-08T06:55:37.706Z,70.18
2023-04-08T06:58:04.502Z,69.19
2023-04-08T07:00:31.498Z,68.98
2023-04-08T07:02:58.235Z,68.92
2023-04-08T07:05:25.091Z,69.39
2023-04-08T07:07:52.036Z,69.57
2023-04-08T07:10:18.846Z,69.29
2023-04-08T07:12:45.563Z,69.54
2023-04-08T07:15:12.154Z,69.39
2023-04-08T07:17:39.569Z,69.41
2023-04-08T07:20:07.117Z,69.01
2023-04-08T07:22:33.828Z,68.50
2023-04-08T07:25:00.454Z,67.82
2023-04-08T07:27:27.414Z,67.84
2023-04-08T07:29:54.809Z,67.95
2023-04-08T07:32:21.980Z,68.11
2023-04-08T07:34:48.764Z,67.79
2023-04-08T07:37:15.532Z,67.35
2023-04-08T07:39:42.091Z,67.48
2023-04-08T07:42:08.980Z,66.63
2023-04-08T07:44:35.801Z,66.98
2023-04-08T07:47:02.499Z,67.18
2023-04-08T07:49:29.126Z,65.56
2023-04-08T07:51:55.979Z,64.77
2023-04-08T07:54:22.906Z,65.14
2023-04-08T07:56:50.335Z,64.27
2023-04-08T07:59:17.551Z,63.67
2023-04-08T08:01:44.430Z,63.32
2023-04-08T08:04:11.272Z,62.41
2023-04-08T08:06:38.073Z,63.03
2023-04-08T08:09:05.209Z,63.17
2023-04-08T08:11:33.183Z,63.41
2023-04-08T08:13:59.758Z,62.36
2023-04-08T08:16:29.908Z,61.80
2023-04-08T08:18:56.732Z,62.88
2023-04-08T08:21:23.734Z,61.13
2023-04-08T08:23:52.596Z,61.31
2023-04-08T08:26:19.336Z,62.32
2023-04-08T08:28:46.271Z,62.04
2023-04-08T08:31:13.603Z,61.88
2023-04-08T08:33:40.395Z,57.77
2023-04-08T08:36:07.408Z,59.47
2023-04-08T08:38:34.275Z,59.23
2023-04-08T08:41:01.978Z,58.83
2023-04-08T08:43:29.260Z,58.34
2023-04-08T08:45:55.910Z,57.76
2023-04-08T08:48:22.729Z,58.75
2023-04-08T08:50:49.432Z,58.99
2023-04-08T08:53:16.191Z,58.81
2023-04-08T08:58:12.770Z,56.41
2023-04-08T09:00:44.890Z,53.62
2023-04-08T09:03:22.286Z,51.86
2023-04-08T09:05:53.196Z,49.61
2023-04-08T09:08:27.376Z,50.79
2023-04-08T09:10:56.344Z,48.20
2023-04-08T09:13:26.347Z,48.37
2023-04-08T09:16:07.633Z,50.22
2023-04-08T09:18:34.842Z,49.88
2023-04-08T09:21:04.930Z,51.03
2023-04-08T09:23:45.092Z,49.23
2023-04-08T09:26:24.138Z,48.33
2023-04-08T09:29:26.103Z,47.55
2023-04-08T09:31:56.003Z,44.02
2023-04-08T09:34:23.494Z,46.92
2023-04-08T09:36:51.438Z,47.87
2023-04-08T09:39:18.579Z,47.12
2023-04-08T09:41:49.052Z,46.47
2023-04-08T09:44:17.202Z,44.65
2023-04-08T09:47:06.923Z,45.72
2023-04-08T09:49:54.953Z,42.24
2023-04-08T09:52:27.911Z,41.37
2023-04-08T09:55:05.906Z,42.63
2023-04-08T09:57:47.897Z,42.34
2023-04-08T10:00:16.593Z,40.20
2023-04-08T10:02:58.980Z,41.14
2023-04-08T10:05:27.171Z,43.79
2023-04-08T10:07:56.358Z,40.87
2023-04-08T10:10:23.884Z,40.03
2023-04-08T10:12:51.318Z,41.17
2023-04-08T10:15:25.081Z,39.24
2023-04-08T10:17:53.470Z,40.26
2023-04-08T10:20:38.712Z,39.21
2023-04-08T10:23:10.057Z,40.49
2023-04-08T10:25:43.561Z,39.13
2023-04-08T10:28:13.559Z,39.60
2023-04-08T10:30:40.315Z,37.73
2023-04-08T10:33:13.435Z,39.21
2023-04-08T10:35:48.390Z,38.96
2023-04-08T10:38:16.859Z,36.74
2023-04-08T10:40:44.572Z,35.20
2023-04-08T10:43:12.982Z,37.29
2023-04-08T10:45:41.237Z,37.34
2023-04-08T10:48:18.341Z,35.78
2023-04-08T10:50:56.258Z,36.96
2023-04-08T10:53:37.835Z,35.09
2023-04-08T10:56:11.147Z,37.47
2023-04-08T10:58:48.627Z,35.05
2023-04-08T11:01:15.533Z,35.30
2023-04-08T11:03:43.297Z,37.83
2023-04-08T11:06:10.274Z,38.20
2023-04-08T11:08:37.152Z,36.19
2023-04-08T11:11:09.040Z,35.91
2023-04-08T11:13:37.232Z,36.40
2023-04-08T11:16:17.116Z,34.60
2023-04-08T11:18:46.219Z,30.65
2023-04-08T11:21:13.117Z,35.24
2023-04-08T11:23:39.936Z,34.75
2023-04-08T11:26:07.011Z,33.99
2023-04-08T11:28:35.576Z,36.85
2023-04-08T11:31:05.928Z,35.38
2023-04-08T11:33:33.260Z,32.74
2023-04-08T11:36:01.979Z,33.68
2023-04-08T11:38:29.301Z,34.25
2023-04-08T11:40:59.932Z,33.23
2023-04-08T11:43:27.122Z,32.14
2023-04-08T11:45:53.910Z,32.76
2023-04-08T11:48:21.376Z,33.56
2023-04-08T11:50:48.133Z,34.87
2023-04-08T11:53:22.152Z,35.74
2023-04-08T11:55:49.254Z,35.44
2023-04-08T11:58:15.980Z,36.18
2023-04-08T12:00:43.823Z,37.62
2023-04-08T12:03:11.506Z,36.47
2023-04-08T12:05:38.525Z,36.75
2023-04-08T12:08:05.504Z,36.45
2023-04-08T12:10:32.949Z,36.16
2023-04-08T12:12:59.711Z,36.41
2023-04-08T12:15:26.621Z,34.72
2023-04-08T12:17:53.322Z,31.40
2023-04-08T12:20:20.282Z,34.88
2023-04-08T12:22:47.078Z,37.63
2023-04-08T12:25:13.843Z,35.40
2023-04-08T12:27:40.544Z,35.69
2023-04-08T12:30:08.087Z,37.64
2023-04-08T12:32:34.875Z,34.78
2023-04-08T12:35:01.671Z,33.52
2023-04-08T12:37:28.741Z,33.88
2023-04-08T12:39:55.640Z,36.17
2023-04-08T12:42:22.299Z,36.02
2023-04-08T12:44:49.066Z,35.07
2023-04-08T12:47:15.929Z,34.25
2023-04-08T12:49:49.370Z,34.98
2023-04-08T12:52:17.434Z,36.54
2023-04-08T12:54:44.484Z,36.55
2023-04-08T12:57:11.252Z,39.19
2023-04-08T12:59:39.958Z,37.91
2023-04-08T13:02:07.738Z,38.20
2023-04-08T13:04:35.048Z,35.91
2023-04-08T13:07:02.486Z,36.50
2023-04-08T13:09:30.728Z,36.75
2023-04-08T13:11:58.437Z,36.99
2023-04-08T13:14:25.653Z,36.55
2023-04-08T13:16:52.563Z,37.57
2023-04-08T13:19:19.338Z,37.61
2023-04-08T13:21:46.398Z,35.08
2023-04-08T13:24:13.284Z,35.29
2023-04-08T13:26:40.402Z,36.47
2023-04-08T13:29:07.190Z,36.44
2023-04-08T13:31:33.954Z,37.00
2023-04-08T13:34:00.997Z,36.87
2023-04-08T13:36:29.222Z,38.19
2023-04-08T13:38:56.630Z,37.82
2023-04-08T13:41:23.600Z,36.93
2023-04-08T13:43:50.583Z,38.58
2023-04-08T13:46:18.186Z,37.59
2023-04-08T13:48:46.336Z,37.55
2023-04-08T13:51:13.248Z,38.23
2023-04-08T13:53:39.886Z,38.31
2023-04-08T13:56:06.968Z,37.20
2023-04-08T13:58:33.680Z,37.47
2023-04-08T14:01:00.405Z,37.89
2023-04-08T14:03:28.049Z,34.43
2023-04-08T14:05:54.910Z,35.19
2023-04-08T14:08:25.459Z,35.31
2023-04-08T14:10:53.532Z,35.64
2023-04-08T14:13:20.388Z,36.35
2023-04-08T14:15:48.128Z,39.10
2023-04-08T14:18:17.400Z,39.32
2023-04-08T14:20:44.374Z,38.38
2023-04-08T14:23:11.588Z,38.79
2023-04-08T14:25:38.492Z,37.66
2023-04-08T14:28:05.214Z,37.75
2023-04-08T14:30:32.143Z,38.40
2023-04-08T14:33:01.021Z,38.44
2023-04-08T14:35:27.994Z,37.72
2023-04-08T14:37:54.646Z,37.27
2023-04-08T14:40:21.519Z,38.31
2023-04-08T14:42:49.959Z,39.17
2023-04-08T14:45:16.891Z,38.07
2023-04-08T14:47:43.697Z,37.81
2023-04-08T14:50:10.798Z,39.23
2023-04-08T14:52:37.527Z,38.96
2023-04-08T14:55:04.563Z,38.84
2023-04-08T14:57:32.060Z,40.07
2023-04-08T14:59:59.502Z,38.90
2023-04-08T15:02:26.360Z,40.73
2023-04-08T15:04:53.192Z,40.95
2023-04-08T15:07:20.035Z,40.05
2023-04-08T15:09:46.807Z,40.04
2023-04-08T15:12:13.766Z,39.59
2023-04-08T15:14:40.773Z,39.76
2023-04-08T15:17:07.527Z,40.21
2023-04-08T15:19:34.296Z,39.84
2023-04-08T15:22:01.145Z,38.55
2023-04-08T15:24:27.987Z,40.53
2023-04-08T15:26:54.936Z,40.32
2023-04-08T15:29:24.913Z,40.19
2023-04-08T15:31:52.620Z,38.98
2023-04-08T15:34:19.402Z,40.35
2023-04-08T15:36:47.470Z,38.96
2023-04-08T15:39:14.826Z,39.68
2023-04-08T15:41:41.539Z,38.21
2023-04-08T15:44:08.390Z,38.99
2023-04-08T15:46:37.334Z,37.07
2023-04-08T15:49:04.651Z,35.74
2023-04-08T15:51:32.245Z,35.76
2023-04-08T15:53:59.053Z,36.49
2023-04-08T15:56:27.107Z,37.44
2023-04-08T15:58:54.193Z,35.99
2023-04-08T16:01:21.442Z,36.65
2023-04-08T16:03:48.643Z,32.33
2023-04-08T16:06:17.959Z,32.36
2023-04-08T16:08:50.808Z,36.02
2023-04-08T16:11:18.701Z,35.37
2023-04-08T16:13:49.615Z,32.72
2023-04-08T16:16:20.194Z,32.78
2023-04-08T16:18:49.908Z,30.64
2023-04-08T16:21:22.550Z,28.56
2023-04-08T16:23:52.572Z,28.29
2023-04-08T16:26:23.159Z,27.38
2023-04-08T16:28:53.927Z,27.69
2023-04-08T16:31:20.767Z,27.99
2023-04-08T16:33:47.541Z,27.86
2023-04-08T16:36:15.036Z,27.65
2023-04-08T16:38:42.036Z,28.11
2023-04-08T16:41:10.148Z,28.01
2023-04-08T16:43:37.893Z,28.19
2023-04-08T16:46:16.134Z,27.81
2023-04-08T16:48:44.035Z,28.11
2023-04-08T16:51:11.686Z,28.14
2023-04-08T16:53:38.751Z,27.88
2023-04-08T16:56:05.780Z,29.19
2023-04-08T16:58:32.580Z,28.46
2023-04-08T17:00:59.410Z,29.30
2023-04-08T17:03:27.182Z,29.67
2023-04-08T17:05:54.036Z,30.10
2023-04-08T17:08:21.351Z,29.74
2023-04-08T17:10:49.661Z,29.30
2023-04-08T17:13:16.813Z,28.21
2023-04-08T17:15:43.533Z,29.28
2023-04-08T17:18:10.580Z,29.04
2023-04-08T17:20:37.575Z,29.20
2023-04-08T17:23:05.175Z,29.33
2023-04-08T17:25:33.469Z,29.53
2023-04-08T17:28:00.162Z,30.21
2023-04-08T17:30:27.295Z,29.95
2023-04-08T17:32:54.058Z,30.83
2023-04-08T17:35:20.760Z,30.60
2023-04-08T17:37:48.415Z,31.42
2023-04-08T17:40:15.261Z,31.04
2023-04-08T17:42:42.020Z,31.27
2023-04-08T17:45:09.300Z,32.25
2023-04-08T17:47:36.288Z,32.67
2023-04-08T17:50:03.093Z,33.17
2023-04-08T17:52:29.794Z,31.94
2023-04-08T17:54:56.626Z,32.21
2023-04-08T17:57:23.346Z,30.67
2023-04-08T17:59:50.056Z,31.52
2023-04-08T18:02:16.932Z,32.05
2023-04-08T18:04:43.770Z,31.71
2023-04-08T18:07:10.572Z,32.10
2023-04-08T18:09:37.195Z,32.15
2023-04-08T18:12:03.927Z,32.21
2023-04-08T18:14:30.773Z,32.48
2023-04-08T18:16:57.609Z,32.59
2023-04-08T18:19:26.270Z,32.94
2023-04-08T18:21:53.445Z,32.38
2023-04-08T18:24:21.354Z,33.06
2023-04-08T18:26:54.312Z,33.26
2023-04-08T18:29:24.662Z,33.41
2023-04-08T18:31:51.278Z,34.45
2023-04-08T18:34:18.634Z,35.11
2023-04-08T18:36:46.325Z,35.88
2023-04-08T18:39:13.772Z,34.77
2023-04-08T18:41:40.700Z,33.78
2023-04-08T18:44:07.706Z,34.78
2023-04-08T18:46:34.490Z,33.46
2023-04-08T18:49:01.295Z,34.14
2023-04-08T18:51:28.762Z,34.49
2023-04-08T18:53:55.513Z,34.43
2023-04-08T18:56:22.272Z,35.37
2023-04-08T18:58:49.733Z,38.00
2023-04-08T19:01:16.829Z,36.11
2023-04-08T19:03:43.697Z,36.95
2023-04-08T19:06:12.611Z,37.49
2023-04-08T19:08:39.802Z,36.84
2023-04-08T19:11:06.513Z,38.46
2023-04-08T19:13:33.336Z,39.07
2023-04-08T19:16:00.130Z,38.56
2023-04-08T19:18:26.935Z,37.44
2023-04-08T19:20:54.221Z,39.27
2023-04-08T19:23:21.179Z,38.16
2023-04-08T19:25:47.974Z,37.02
2023-04-08T19:28:14.768Z,39.42
2023-04-08T19:30:41.588Z,39.59
2023-04-08T19:33:08.931Z,39.71
2023-04-08T19:35:35.711Z,39.72
2023-04-08T19:38:03.225Z,39.16
2023-04-08T19:40:29.934Z,39.09
2023-04-08T19:42:57.053Z,39.00
2023-04-08T19:45:23.781Z,39.75
2023-04-08T19:47:50.617Z,41.26
2023-04-08T19:50:17.244Z,40.63
2023-04-08T19:52:43.943Z,40.04
2023-04-08T19:55:10.933Z,41.05
2023-04-08T19:57:37.783Z,40.59
2023-04-08T20:00:04.787Z,41.31
2023-04-08T20:02:33.367Z,39.73
2023-04-08T20:05:01.139Z,42.03
2023-04-08T20:07:28.027Z,42.32
2023-04-08T20:09:54.682Z,41.22
2023-04-08T20:12:21.680Z,45.46
2023-04-08T20:14:48.987Z,48.18
2023-04-08T20:17:17.937Z,49.39
2023-04-08T20:19:44.661Z,51.42
2023-04-08T20:22:11.662Z,51.99
2023-04-08T20:24:38.342Z,53.27
2023-04-08T20:27:05.208Z,54.33
2023-04-08T20:29:32.366Z,53.39
2023-04-08T20:31:59.412Z,53.05
2023-04-08T20:34:26.496Z,53.72
2023-04-08T20:36:53.299Z,53.45
2023-04-08T20:39:20.095Z,53.66
2023-04-08T20:41:47.174Z,53.13
2023-04-08T20:44:13.952Z,53.32
2023-04-08T20:46:41.229Z,53.74
2023-04-08T20:49:08.170Z,54.23
2023-04-08T20:51:34.922Z,54.24
2023-04-08T20:54:01.603Z,53.43
2023-04-08T20:56:28.489Z,52.63
2023-04-08T20:58:56.867Z,52.60
2023-04-08T21:01:25.917Z,52.14
2023-04-08T21:03:52.937Z,51.69
2023-04-08T21:06:20.573Z,52.09
2023-04-08T21:08:48.161Z,51.27
2023-04-08T21:11:15.638Z,51.33
2023-04-08T21:13:42.676Z,51.20
2023-04-08T21:16:09.522Z,51.26
2023-04-08T21:18:39.053Z,51.69
2023-04-08T21:21:06.168Z,50.86
2023-04-08T21:23:32.815Z,51.68
2023-04-08T21:26:01.372Z,51.79
2023-04-08T21:28:29.399Z,50.76
2023-04-08T21:30:56.610Z,51.11
2023-04-08T21:33:23.403Z,50.60
2023-04-08T21:35:50.127Z,50.81
2023-04-08T21:38:16.917Z,51.26
2023-04-08T21:40:43.817Z,51.66
2023-04-08T21:43:10.575Z,50.68
2023-04-08T21:45:37.460Z,50.93
2023-04-08T21:48:04.477Z,51.38
2023-04-08T21:50:32.361Z,51.44
2023-04-08T21:52:59.211Z,51.85
2023-04-08T21:55:25.961Z,51.52
2023-04-08T21:57:52.683Z,50.90
2023-04-08T22:00:19.383Z,51.44
2023-04-08T22:02:46.282Z,51.83
2023-04-08T22:05:13.142Z,52.05
2023-04-08T22:07:39.856Z,50.87
2023-04-08T22:10:07.459Z,51.39
2023-04-08T22:12:34.319Z,51.58
2023-04-08T22:15:01.084Z,50.75
2023-04-08T22:17:28.058Z,50.79
2023-04-08T22:19:54.846Z,51.01
2023-04-08T22:22:21.641Z,51.04
2023-04-08T22:24:48.470Z,51.03
2023-04-08T22:27:15.458Z,50.84
2023-04-08T22:29:42.190Z,50.96
2023-04-08T22:32:09.020Z,51.51
2023-04-08T22:34:36.232Z,51.61
2023-04-08T22:37:03.014Z,52.08
2023-04-08T22:39:29.820Z,51.38
2023-04-08T22:41:57.429Z,51.48
2023-04-08T22:44:24.098Z,51.76
2023-04-08T22:46:51.856Z,51.48
2023-04-08T22:49:18.547Z,52.04
2023-04-08T22:51:45.274Z,51.81
2023-04-08T22:54:12.033Z,51.98
2023-04-08T22:56:38.729Z,52.27
2023-04-08T22:59:05.664Z,51.87
2023-04-08T23:01:32.694Z,53.54
2023-04-08T23:03:59.546Z,53.28
2023-04-08T23:06:27.391Z,54.03
2023-04-08T23:08:54.111Z,54.35
2023-04-08T23:11:21.299Z,54.03
2023-04-08T23:13:47.995Z,54.15
2023-04-08T23:16:14.823Z,53.34
2023-04-08T23:18:41.553Z,53.77
2023-04-08T23:21:08.184Z,53.55
2023-04-08T23:23:34.935Z,52.90
2023-04-08T23:26:01.708Z,52.66
2023-04-08T23:28:28.647Z,52.50
2023-04-08T23:30:55.440Z,52.28
2023-04-08T23:33:22.085Z,52.79
2023-04-08T23:35:48.805Z,52.64
2023-04-08T23:38:15.611Z,53.10
2023-04-08T23:40:42.402Z,52.80
2023-04-08T23:43:09.134Z,53.31
2023-04-08T23:45:35.900Z,53.63
2023-04-08T23:48:02.612Z,53.44
2023-04-08T23:50:29.300Z,53.45
2023-04-08T23:52:56.104Z,53.50
2023-04-08T23:55:22.818Z,53.60
2023-04-08T23:57:50.749Z,53.90
